Salonica, Greece
Current Conditions -  °F | °C
As of 8:20 AM on Saturday 20 Dec 2014 (Local Time) from LGTS Reporting Station
Haze Haze  
Wind Chill:   Ceiling: Unl
Heat Index:   Visibility: 5mi
Dew Point:   Wind: 3mph
Humidity: 100%   Direction: NA
Pressure: 30.15"   Gusts: NA
Location:  40.52°N, 22.97°E
Report Text: LGTS 200520Z VRB03KT 8000 3000SW BR FEW005 02/02 Q1021 NOSIG
Loading
Personal Weather Stations






























Interactive Weather Map New forecast layout! Learn more

10-Day Weather Forecast

Advertisements
Track Severe Weather on mobile